createdAt,value
2017-09-12T00:00:50.863Z,17.5
2017-09-12T00:01:53.595Z,17.4
2017-09-12T00:02:55.992Z,17.4
2017-09-12T00:03:58.383Z,17.5
2017-09-12T00:05:00.776Z,17.5
2017-09-12T00:06:03.178Z,17.5
2017-09-12T00:07:05.573Z,17.5
2017-09-12T00:08:07.968Z,17.5
2017-09-12T00:09:10.356Z,17.4
2017-09-12T00:10:12.749Z,17.4
2017-09-12T00:11:15.494Z,17.4
2017-09-12T00:12:17.888Z,17.4
2017-09-12T00:13:20.291Z,17.4
2017-09-12T00:14:22.686Z,17.4
2017-09-12T00:15:25.081Z,17.3
2017-09-12T00:16:27.480Z,17.3
2017-09-12T00:17:29.872Z,17.3
2017-09-12T00:18:32.262Z,17.3
2017-09-12T00:19:34.656Z,17.3
2017-09-12T00:20:37.034Z,17.3
2017-09-12T00:21:39.430Z,17.3
2017-09-12T00:22:42.158Z,17.2
2017-09-12T00:23:44.549Z,17.2
2017-09-12T00:24:47.639Z,17.2
2017-09-12T00:25:50.028Z,17.2
2017-09-12T00:26:52.424Z,17.2
2017-09-12T00:27:54.824Z,17.2
2017-09-12T00:28:57.211Z,17.2
2017-09-12T00:29:59.602Z,17.2
2017-09-12T00:31:02.001Z,17.2
2017-09-12T00:32:04.394Z,17.2
2017-09-12T00:33:07.141Z,17.2
2017-09-12T00:34:09.893Z,17.2
2017-09-12T00:35:12.272Z,17.2
2017-09-12T00:36:14.670Z,17.2
2017-09-12T00:37:17.074Z,17.2
2017-09-12T00:38:19.465Z,17.2
2017-09-12T00:39:21.846Z,17.2
2017-09-12T00:40:24.239Z,17.1
2017-09-12T00:41:26.633Z,17.2
2017-09-12T00:42:29.026Z,17.1
2017-09-12T00:43:31.424Z,17.1
2017-09-12T00:44:33.808Z,17.1
2017-09-12T00:45:36.194Z,17.1
2017-09-12T00:46:38.596Z,17.1
2017-09-12T00:47:40.990Z,17.1
2017-09-12T00:48:43.425Z,17.1
2017-09-12T00:49:46.163Z,17.1
2017-09-12T00:50:48.555Z,17.1
2017-09-12T00:51:50.952Z,17.1
2017-09-12T00:52:53.352Z,17.1
2017-09-12T00:53:55.741Z,17.1
2017-09-12T00:54:58.133Z,17.1
2017-09-12T00:56:00.528Z,17.1
2017-09-12T00:57:02.922Z,17
2017-09-12T00:58:05.323Z,17
2017-09-12T00:59:07.710Z,17
2017-09-12T01:00:10.095Z,17
2017-09-12T01:01:12.523Z,17
2017-09-12T01:02:14.893Z,17
2017-09-12T01:03:17.278Z,17
2017-09-12T01:04:19.671Z,17
2017-09-12T01:05:22.065Z,17
2017-09-12T01:06:24.485Z,17
2017-09-12T01:07:26.857Z,17
2017-09-12T01:08:29.258Z,17
2017-09-12T01:09:31.649Z,17
2017-09-12T01:10:34.035Z,17
2017-09-12T01:11:36.430Z,17
2017-09-12T01:12:38.827Z,16.9
2017-09-12T01:13:41.225Z,16.9
2017-09-12T01:14:43.625Z,16.9
2017-09-12T01:15:46.011Z,16.9
2017-09-12T01:16:48.404Z,16.9
2017-09-12T01:17:50.800Z,16.9
2017-09-12T01:18:53.195Z,16.9
2017-09-12T01:19:55.581Z,16.9
2017-09-12T01:20:58.310Z,16.9
2017-09-12T01:22:00.705Z,16.9
2017-09-12T01:23:03.429Z,16.8
2017-09-12T01:24:05.819Z,16.9
2017-09-12T01:25:08.211Z,16.8
2017-09-12T01:26:10.620Z,16.8
2017-09-12T01:27:13.015Z,16.8
2017-09-12T01:28:15.400Z,16.8
2017-09-12T01:29:17.798Z,16.8
2017-09-12T01:30:20.193Z,16.8
2017-09-12T01:31:22.582Z,16.8
2017-09-12T01:32:24.971Z,16.8
2017-09-12T01:33:27.366Z,16.8
2017-09-12T01:34:29.760Z,16.8
2017-09-12T01:35:32.158Z,16.8
2017-09-12T01:36:34.552Z,16.8
2017-09-12T01:37:37.283Z,16.8
2017-09-12T01:38:39.674Z,16.7
2017-09-12T01:39:42.067Z,16.8
2017-09-12T01:40:44.461Z,16.7
2017-09-12T01:41:46.855Z,16.7
2017-09-12T01:42:49.250Z,16.7
2017-09-12T01:43:51.651Z,16.7
2017-09-12T01:44:54.037Z,16.7
2017-09-12T01:45:56.443Z,16.7
2017-09-12T01:46:58.846Z,16.7
2017-09-12T01:48:01.235Z,16.7
2017-09-12T01:49:03.624Z,16.7
2017-09-12T01:50:06.014Z,16.7
2017-09-12T01:51:08.405Z,16.7
2017-09-12T01:52:10.807Z,16.7
2017-09-12T01:53:13.190Z,16.6
2017-09-12T01:54:15.582Z,16.6
2017-09-12T01:55:17.983Z,16.6
2017-09-12T01:56:20.372Z,16.6
2017-09-12T01:57:23.124Z,16.5
2017-09-12T01:58:25.516Z,16.5
2017-09-12T01:59:27.903Z,16.5
2017-09-12T02:00:30.305Z,16.5
2017-09-12T02:01:32.700Z,16.5
2017-09-12T02:02:35.078Z,16.5
2017-09-12T02:03:37.835Z,16.5
2017-09-12T02:04:40.230Z,16.5
2017-09-12T02:05:42.620Z,16.5
2017-09-12T02:06:45.007Z,16.5
2017-09-12T02:07:47.758Z,16.5
2017-09-12T02:08:50.477Z,16.5
2017-09-12T02:09:52.869Z,16.5
2017-09-12T02:10:55.255Z,16.5
2017-09-12T02:11:57.646Z,16.5
2017-09-12T02:13:00.039Z,16.5
2017-09-12T02:14:02.773Z,16.5
2017-09-12T02:15:05.163Z,16.5
2017-09-12T02:16:07.560Z,16.6
2017-09-12T02:17:10.294Z,16.6
2017-09-12T02:18:12.690Z,16.6
2017-09-12T02:19:15.077Z,16.6
2017-09-12T02:20:17.468Z,16.6
2017-09-12T02:21:19.864Z,16.6
2017-09-12T02:22:22.258Z,16.6
2017-09-12T02:23:24.645Z,16.7
2017-09-12T02:24:27.031Z,16.7
2017-09-12T02:25:29.420Z,16.7
2017-09-12T02:26:31.820Z,16.7
2017-09-12T02:27:34.210Z,16.7
2017-09-12T02:28:36.597Z,16.7
2017-09-12T02:29:38.995Z,16.7
2017-09-12T02:30:41.391Z,16.7
2017-09-12T02:31:43.784Z,16.7
2017-09-12T02:32:46.180Z,16.7
2017-09-12T02:33:48.567Z,16.7
2017-09-12T02:34:50.959Z,16.7
2017-09-12T02:35:53.366Z,16.7
2017-09-12T02:36:55.755Z,16.8
2017-09-12T02:37:58.153Z,16.8
2017-09-12T02:39:00.548Z,16.8
2017-09-12T02:40:02.948Z,16.8
2017-09-12T02:41:05.326Z,16.8
2017-09-12T02:42:07.720Z,16.8
2017-09-12T02:43:10.121Z,16.9
2017-09-12T02:44:12.854Z,16.8
2017-09-12T02:45:15.584Z,16.9
2017-09-12T02:46:17.975Z,16.9
2017-09-12T02:47:20.695Z,16.9
2017-09-12T02:48:23.091Z,16.9
2017-09-12T02:49:25.824Z,16.9
2017-09-12T02:50:28.205Z,16.9
2017-09-12T02:51:30.604Z,17
2017-09-12T02:52:33.342Z,17
2017-09-12T02:53:36.086Z,17
2017-09-12T02:54:38.481Z,17
2017-09-12T02:55:40.868Z,17
2017-09-12T02:56:43.261Z,17
2017-09-12T02:57:45.660Z,17
2017-09-12T02:58:48.048Z,17
2017-09-12T02:59:50.439Z,17
2017-09-12T03:00:52.837Z,17
2017-09-12T03:01:55.217Z,17
2017-09-12T03:02:57.606Z,17
2017-09-12T03:04:00.335Z,17.1
2017-09-12T03:05:02.729Z,17.1
2017-09-12T03:06:05.133Z,17
2017-09-12T03:07:07.511Z,17.1
2017-09-12T03:08:10.252Z,17.1
2017-09-12T03:09:12.652Z,17.1
2017-09-12T03:10:15.044Z,17.1
2017-09-12T03:11:17.435Z,17.1
2017-09-12T03:12:19.830Z,17.1
2017-09-12T03:13:22.218Z,17.1
2017-09-12T03:14:24.624Z,17.1
2017-09-12T03:15:27.021Z,17.1
2017-09-12T03:16:29.399Z,17.1
2017-09-12T03:17:31.794Z,17.1
2017-09-12T03:18:34.189Z,17.1
2017-09-12T03:19:36.581Z,17.1
2017-09-12T03:20:38.970Z,17.1
2017-09-12T03:21:41.362Z,17.1
2017-09-12T03:22:43.753Z,17.1
2017-09-12T03:23:46.158Z,17.1
2017-09-12T03:24:48.549Z,17.1
2017-09-12T03:25:50.937Z,17.1
2017-09-12T03:26:53.328Z,17.1
2017-09-12T03:27:55.726Z,17.1
2017-09-12T03:28:58.124Z,17.1
2017-09-12T03:30:00.520Z,17.2
2017-09-12T03:31:02.907Z,17.2
2017-09-12T03:32:05.642Z,17.1
2017-09-12T03:33:08.036Z,17.2
2017-09-12T03:34:10.434Z,17.2
2017-09-12T03:35:12.821Z,17.2
2017-09-12T03:36:15.211Z,17.2
2017-09-12T03:37:17.602Z,17.3
2017-09-12T03:38:19.987Z,17.3
2017-09-12T03:39:22.381Z,17.3
2017-09-12T03:40:24.809Z,17.3
2017-09-12T03:41:27.172Z,17.3
2017-09-12T03:42:29.898Z,17.3
2017-09-12T03:43:32.291Z,17.3
2017-09-12T03:44:34.694Z,17.3
2017-09-12T03:45:37.426Z,17.3
2017-09-12T03:46:39.820Z,17.4
2017-09-12T03:47:42.206Z,17.4
2017-09-12T03:48:44.602Z,17.4
2017-09-12T03:49:47.337Z,17.4
2017-09-12T03:50:49.729Z,17.4
2017-09-12T03:51:52.130Z,17.4
2017-09-12T03:52:54.522Z,17.4
2017-09-12T03:53:56.916Z,17.5
2017-09-12T03:54:59.310Z,17.5
2017-09-12T03:56:01.700Z,17.5
2017-09-12T03:57:04.434Z,17.5
2017-09-12T03:58:06.834Z,17.5
2017-09-12T03:59:09.222Z,17.5
2017-09-12T04:00:11.617Z,17.5
2017-09-12T04:01:14.014Z,17.5
2017-09-12T04:02:16.404Z,17.6
2017-09-12T04:03:18.801Z,17.6
2017-09-12T04:04:21.199Z,17.6
2017-09-12T04:05:23.927Z,17.6
2017-09-12T04:06:26.319Z,17.6
2017-09-12T04:07:28.713Z,17.6
2017-09-12T04:08:31.107Z,17.6
2017-09-12T04:09:33.501Z,17.6
2017-09-12T04:10:35.896Z,17.6
2017-09-12T04:11:38.295Z,17.6
2017-09-12T04:12:41.021Z,17.6
2017-09-12T04:13:43.418Z,17.6
2017-09-12T04:14:45.809Z,17.6
2017-09-12T04:15:48.199Z,17.6
2017-09-12T04:16:50.592Z,17.6
2017-09-12T04:17:53.318Z,17.6
2017-09-12T04:18:55.706Z,17.6
2017-09-12T04:19:58.102Z,17.6
2017-09-12T04:21:00.499Z,17.6
2017-09-12T04:22:02.890Z,17.6
2017-09-12T04:23:05.294Z,17.6
2017-09-12T04:24:07.686Z,17.6
2017-09-12T04:25:10.071Z,17.6
2017-09-12T04:26:12.466Z,17.6
2017-09-12T04:27:14.860Z,17.6
2017-09-12T04:28:17.253Z,17.6
2017-09-12T04:29:19.650Z,17.6
2017-09-12T04:30:22.026Z,17.6
2017-09-12T04:31:24.420Z,17.7
2017-09-12T04:32:26.820Z,17.7
2017-09-12T04:33:29.214Z,17.7
2017-09-12T04:34:31.604Z,17.7
2017-09-12T04:35:33.995Z,17.7
2017-09-12T04:36:36.383Z,17.7
2017-09-12T04:37:38.784Z,17.7
2017-09-12T04:38:41.173Z,17.7
2017-09-12T04:39:43.909Z,17.7
2017-09-12T04:40:46.304Z,17.7
2017-09-12T04:41:49.047Z,17.7
2017-09-12T04:42:51.776Z,17.7
2017-09-12T04:43:54.171Z,17.7
2017-09-12T04:44:56.566Z,17.7
2017-09-12T04:45:59.305Z,17.7
2017-09-12T04:47:01.690Z,17.7
2017-09-12T04:48:04.084Z,17.7
2017-09-12T04:49:06.484Z,17.7
2017-09-12T04:50:08.877Z,17.7
2017-09-12T04:51:11.960Z,17.7
2017-09-12T04:52:14.360Z,17.8
2017-09-12T04:53:16.752Z,17.8
2017-09-12T04:54:19.154Z,17.8
2017-09-12T04:55:21.550Z,17.8
2017-09-12T04:56:23.937Z,17.9
2017-09-12T04:57:26.342Z,17.9
2017-09-12T04:58:28.739Z,17.9
2017-09-12T04:59:31.148Z,18
2017-09-12T05:00:33.542Z,18
2017-09-12T05:01:36.613Z,18
2017-09-12T05:02:39.014Z,18
2017-09-12T05:03:41.423Z,18
2017-09-12T05:04:43.820Z,18
2017-09-12T05:05:46.215Z,18
2017-09-12T05:06:48.948Z,18
2017-09-12T05:07:51.343Z,18
2017-09-12T05:08:53.746Z,18
2017-09-12T05:09:56.143Z,18
2017-09-12T05:10:58.544Z,18
2017-09-12T05:12:00.930Z,18
2017-09-12T05:13:03.337Z,18
2017-09-12T05:14:05.742Z,18
2017-09-12T05:15:08.132Z,18
2017-09-12T05:16:10.524Z,18
2017-09-12T05:17:12.921Z,18
2017-09-12T05:18:15.320Z,18
2017-09-12T05:19:17.714Z,18
2017-09-12T05:20:20.474Z,18
2017-09-12T05:21:22.865Z,18
2017-09-12T05:22:25.265Z,18
2017-09-12T05:23:27.660Z,18
2017-09-12T05:24:30.054Z,18
2017-09-12T05:25:32.450Z,18
2017-09-12T05:26:34.838Z,18.1
2017-09-12T05:27:37.242Z,18.1
2017-09-12T05:28:39.644Z,18.1
2017-09-12T05:29:42.036Z,18.1
2017-09-12T05:30:44.433Z,18.1
2017-09-12T05:31:46.832Z,18.1
2017-09-12T05:32:49.225Z,18.1
2017-09-12T05:33:51.625Z,18.1
2017-09-12T05:34:54.358Z,18.1
2017-09-12T05:35:56.759Z,18.1
2017-09-12T05:36:59.181Z,18.1
2017-09-12T05:38:01.578Z,18.1
2017-09-12T05:39:03.992Z,18.1
2017-09-12T05:40:06.389Z,18.1
2017-09-12T05:41:08.779Z,18.1
2017-09-12T05:42:11.177Z,18.1
2017-09-12T05:43:13.567Z,18.1
2017-09-12T05:44:15.966Z,18.1
2017-09-12T05:45:18.365Z,18.1
2017-09-12T05:46:20.758Z,18.1
2017-09-12T05:47:23.144Z,18.1
2017-09-12T05:48:25.559Z,18.1
2017-09-12T05:49:27.949Z,18.1
2017-09-12T05:50:30.350Z,18.1
2017-09-12T05:51:32.749Z,18.2
2017-09-12T05:52:35.142Z,18.2
2017-09-12T05:53:37.548Z,18.2
2017-09-12T05:54:39.948Z,18.2
2017-09-12T05:55:42.348Z,18.2
2017-09-12T05:56:44.753Z,18.2
2017-09-12T05:57:47.484Z,18.3
2017-09-12T05:58:49.884Z,18.2
2017-09-12T05:59:52.284Z,18.2
2017-09-12T06:00:54.669Z,18.3
2017-09-12T06:01:57.067Z,18.3
2017-09-12T06:02:59.471Z,18.3
2017-09-12T06:04:01.873Z,18.3
2017-09-12T06:05:04.616Z,18.3
2017-09-12T06:06:07.018Z,18.3
2017-09-12T06:07:09.417Z,18.3
2017-09-12T06:08:11.821Z,18.3
2017-09-12T06:09:14.214Z,18.4
2017-09-12T06:10:16.620Z,18.4
2017-09-12T06:11:19.011Z,18.4
2017-09-12T06:12:21.414Z,18.4
2017-09-12T06:13:23.809Z,18.4
2017-09-12T06:14:26.203Z,18.4
2017-09-12T06:15:28.601Z,18.5
2017-09-12T06:16:30.997Z,18.4
2017-09-12T06:17:33.394Z,18.5
2017-09-12T06:18:35.801Z,18.4
2017-09-12T06:19:38.528Z,18.4
2017-09-12T06:20:40.923Z,18.5
2017-09-12T06:21:43.317Z,18.5
2017-09-12T06:22:45.711Z,18.5
2017-09-12T06:23:48.102Z,18.5
2017-09-12T06:24:50.506Z,18.5
2017-09-12T06:25:52.894Z,18.6
2017-09-12T06:26:55.298Z,18.6
2017-09-12T06:27:57.695Z,18.6
2017-09-12T06:29:00.087Z,18.6
2017-09-12T06:30:02.487Z,18.6
2017-09-12T06:31:05.234Z,18.6
2017-09-12T06:32:07.632Z,18.6
2017-09-12T06:33:10.029Z,18.7
2017-09-12T06:34:12.440Z,18.7
2017-09-12T06:35:14.836Z,18.7
2017-09-12T06:36:17.237Z,18.7
2017-09-12T06:37:19.633Z,18.7
2017-09-12T06:38:22.037Z,18.7
2017-09-12T06:39:24.432Z,18.7
2017-09-12T06:40:26.829Z,18.7
2017-09-12T06:41:29.223Z,18.7
2017-09-12T06:42:31.624Z,18.7
2017-09-12T06:43:34.026Z,18.7
2017-09-12T06:44:36.418Z,18.7
2017-09-12T06:45:38.812Z,18.8
2017-09-12T06:46:41.218Z,18.7
2017-09-12T06:47:43.947Z,18.7
2017-09-12T06:48:46.350Z,18.8
2017-09-12T06:49:48.755Z,18.7
2017-09-12T06:50:51.151Z,18.8
2017-09-12T06:51:53.551Z,18.8
2017-09-12T06:52:55.955Z,18.7
2017-09-12T06:53:58.350Z,18.8
2017-09-12T06:55:00.744Z,18.7
2017-09-12T06:56:03.140Z,18.7
2017-09-12T06:57:05.735Z,18.8
2017-09-12T06:58:08.141Z,18.7
2017-09-12T06:59:10.530Z,18.8
2017-09-12T07:00:12.927Z,18.8
2017-09-12T07:01:15.327Z,18.8
2017-09-12T07:02:17.718Z,18.9
2017-09-12T07:03:20.112Z,18.9
2017-09-12T07:04:22.510Z,18.9
2017-09-12T07:05:24.898Z,18.9
2017-09-12T07:06:27.305Z,18.9
2017-09-12T07:07:29.699Z,18.9
2017-09-12T07:08:32.099Z,19
2017-09-12T07:09:34.488Z,19
2017-09-12T07:10:37.229Z,19
2017-09-12T07:11:39.616Z,19
2017-09-12T07:12:42.353Z,19
2017-09-12T07:13:44.749Z,19
2017-09-12T07:14:47.146Z,19
2017-09-12T07:15:49.545Z,19
2017-09-12T07:16:51.957Z,19
2017-09-12T07:17:54.345Z,19
2017-09-12T07:18:57.087Z,19
2017-09-12T07:19:59.480Z,19
2017-09-12T07:21:02.218Z,18.9
2017-09-12T07:22:04.624Z,18.9
2017-09-12T07:23:07.021Z,18.9
2017-09-12T07:24:09.414Z,19
2017-09-12T07:25:12.172Z,19
2017-09-12T07:26:14.563Z,19
2017-09-12T07:27:16.958Z,19
2017-09-12T07:28:19.356Z,19
2017-09-12T07:29:21.750Z,19
2017-09-12T07:30:24.159Z,19
2017-09-12T07:31:26.567Z,19
2017-09-12T07:32:28.960Z,19
2017-09-12T07:33:31.354Z,19
2017-09-12T07:34:33.759Z,19
2017-09-12T07:35:36.156Z,19
2017-09-12T07:36:38.553Z,19
2017-09-12T07:37:40.946Z,19
2017-09-12T07:38:43.346Z,19
2017-09-12T07:39:45.739Z,19
2017-09-12T07:40:48.489Z,19
2017-09-12T07:41:50.893Z,19
2017-09-12T07:42:53.285Z,19
2017-09-12T07:43:56.032Z,19
2017-09-12T07:44:58.434Z,19
2017-09-12T07:46:00.831Z,19.1
2017-09-12T07:47:03.233Z,19.1
2017-09-12T07:48:05.630Z,19.2
2017-09-12T07:49:08.019Z,19.2
2017-09-12T07:50:10.420Z,19.2
2017-09-12T07:51:12.816Z,19.2
2017-09-12T07:52:15.206Z,19.2
2017-09-12T07:53:17.600Z,19.2
2017-09-12T07:54:20.002Z,19.3
2017-09-12T07:55:22.733Z,19.3
2017-09-12T07:56:25.148Z,19.4
2017-09-12T07:57:27.540Z,19.4
2017-09-12T07:58:29.937Z,19.4
2017-09-12T07:59:32.344Z,19.4
2017-09-12T08:00:34.748Z,19.4
2017-09-12T08:01:37.147Z,19.4
2017-09-12T08:02:39.545Z,19.4
2017-09-12T08:03:42.278Z,19.4
2017-09-12T08:04:44.675Z,19.4
2017-09-12T08:05:47.073Z,19.4
2017-09-12T08:06:49.479Z,19.4
2017-09-12T08:07:51.876Z,19.4
2017-09-12T08:08:54.277Z,19.3
2017-09-12T08:09:56.675Z,19.4
2017-09-12T08:10:59.070Z,19.3
2017-09-12T08:12:01.462Z,19.3
2017-09-12T08:13:03.862Z,19.3
2017-09-12T08:14:06.254Z,19.3
2017-09-12T08:15:08.648Z,19.3
2017-09-12T08:16:11.048Z,19.3
2017-09-12T08:17:13.439Z,19.4
2017-09-12T08:18:15.834Z,19.4
2017-09-12T08:19:18.236Z,19.4
2017-09-12T08:20:20.635Z,19.4
2017-09-12T08:21:23.042Z,19.5
2017-09-12T08:22:25.431Z,19.4
2017-09-12T08:23:27.837Z,19.4
2017-09-12T08:24:30.240Z,19.4
2017-09-12T08:25:32.625Z,19.4
2017-09-12T08:26:35.024Z,19.4
2017-09-12T08:27:37.438Z,19.4
2017-09-12T08:28:39.829Z,19.4
2017-09-12T08:29:42.228Z,19.5
2017-09-12T08:30:44.621Z,19.5
2017-09-12T08:31:47.022Z,19.6
2017-09-12T08:32:49.410Z,19.6
2017-09-12T08:33:51.807Z,19.7
2017-09-12T08:34:54.222Z,19.7
2017-09-12T08:35:56.972Z,19.7
2017-09-12T08:36:59.378Z,19.7
2017-09-12T08:38:01.779Z,19.7
2017-09-12T08:39:04.173Z,19.8
2017-09-12T08:40:06.581Z,19.8
2017-09-12T08:41:09.314Z,19.9
2017-09-12T08:42:11.697Z,19.9
2017-09-12T08:43:14.097Z,20
2017-09-12T08:44:16.499Z,20.1
2017-09-12T08:45:18.915Z,20.1
2017-09-12T08:46:21.320Z,20.1
2017-09-12T08:47:23.704Z,20.1
2017-09-12T08:48:26.109Z,20
2017-09-12T08:49:28.523Z,20
2017-09-12T08:50:30.925Z,20
2017-09-12T08:51:33.321Z,20.1
2017-09-12T08:52:35.720Z,20.1
2017-09-12T08:53:38.114Z,20.1
2017-09-12T08:54:40.519Z,20.2
2017-09-12T08:55:42.916Z,20.2
2017-09-12T08:56:45.305Z,20.3
2017-09-12T08:57:47.704Z,20.3
2017-09-12T08:58:50.108Z,20.3
2017-09-12T08:59:52.503Z,20.3
2017-09-12T09:00:54.899Z,20.4
2017-09-12T09:01:57.306Z,20.4
2017-09-12T09:02:59.701Z,20.4
2017-09-12T09:04:02.116Z,20.4
2017-09-12T09:05:04.511Z,20.4
2017-09-12T09:06:07.265Z,20.4
2017-09-12T09:07:09.664Z,20.4
2017-09-12T09:08:12.065Z,20.4
2017-09-12T09:09:14.465Z,20.4
2017-09-12T09:10:16.860Z,20.5
2017-09-12T09:11:19.268Z,20.4
2017-09-12T09:12:21.664Z,20.4
2017-09-12T09:13:24.732Z,20.5
2017-09-12T09:14:27.134Z,20.4
2017-09-12T09:15:29.527Z,20.4
2017-09-12T09:16:31.921Z,20.4
2017-09-12T09:17:34.324Z,20.5
2017-09-12T09:18:36.725Z,20.5
2017-09-12T09:19:39.478Z,20.6
2017-09-12T09:20:41.881Z,20.6
2017-09-12T09:21:44.276Z,20.6
2017-09-12T09:22:46.674Z,20.6
2017-09-12T09:23:49.077Z,20.6
2017-09-12T09:24:51.802Z,20.6
2017-09-12T09:25:54.198Z,20.6
2017-09-12T09:26:56.935Z,20.6
2017-09-12T09:27:59.333Z,20.6
2017-09-12T09:29:01.734Z,20.6
2017-09-12T09:30:04.137Z,20.6
2017-09-12T09:31:06.538Z,20.5
2017-09-12T09:32:08.932Z,20.5
2017-09-12T09:33:11.330Z,20.5
2017-09-12T09:34:13.731Z,20.4
2017-09-12T09:35:16.138Z,20.3
2017-09-12T09:36:18.537Z,20.4
2017-09-12T09:37:20.938Z,20.3
2017-09-12T09:38:23.668Z,20.3
2017-09-12T09:39:26.412Z,20.3
2017-09-12T09:40:28.809Z,20.2
2017-09-12T09:41:31.206Z,20.3
2017-09-12T09:42:33.602Z,20.2
2017-09-12T09:43:35.998Z,20.3
2017-09-12T09:44:38.389Z,20.3
2017-09-12T09:45:40.791Z,20.3
2017-09-12T09:46:43.181Z,20.3
2017-09-12T09:47:45.577Z,20.3
2017-09-12T09:48:47.990Z,20.4
2017-09-12T09:49:50.384Z,20.5
2017-09-12T09:50:52.779Z,20.6
2017-09-12T09:51:55.509Z,20.8
2017-09-12T09:52:57.913Z,21
2017-09-12T09:54:00.315Z,21.2
2017-09-12T09:55:02.716Z,21.3
2017-09-12T09:56:05.101Z,21.5
2017-09-12T09:57:07.506Z,21.6
2017-09-12T09:58:09.906Z,21.8
2017-09-12T09:59:12.309Z,21.9
2017-09-12T10:00:14.703Z,22
2017-09-12T10:01:17.446Z,22.2
2017-09-12T10:02:19.842Z,22.3
2017-09-12T10:03:22.242Z,22.3
2017-09-12T10:04:24.638Z,22.4
2017-09-12T10:05:27.042Z,22.4
2017-09-12T10:06:29.445Z,22.6
2017-09-12T10:07:31.843Z,22.7
2017-09-12T10:08:34.244Z,22.8
2017-09-12T10:09:36.649Z,22.9
2017-09-12T10:10:39.056Z,22.9
2017-09-12T10:11:41.458Z,23
2017-09-12T10:12:43.850Z,23.1
2017-09-12T10:13:46.254Z,23.2
2017-09-12T10:14:48.655Z,23.3
2017-09-12T10:15:51.054Z,23.6
2017-09-12T10:16:53.459Z,23.7
2017-09-12T10:17:55.863Z,23.9
2017-09-12T10:18:58.938Z,24
2017-09-12T10:20:01.352Z,24.1
2017-09-12T10:21:03.756Z,24.2
2017-09-12T10:22:06.145Z,24.2
2017-09-12T10:23:08.556Z,24.2
2017-09-12T10:24:10.957Z,24.2
2017-09-12T10:25:13.359Z,24.2
2017-09-12T10:26:15.763Z,24.2
2017-09-12T10:27:18.158Z,24.2
2017-09-12T10:28:20.562Z,24.3
2017-09-12T10:29:22.972Z,24.3
2017-09-12T10:30:25.377Z,24.4
2017-09-12T10:31:27.777Z,24.4
2017-09-12T10:32:30.180Z,24.5
2017-09-12T10:33:32.583Z,24.5
2017-09-12T10:34:34.978Z,24.5
2017-09-12T10:35:37.379Z,24.5
2017-09-12T10:36:39.787Z,24.5
2017-09-12T10:37:42.187Z,24.6
2017-09-12T10:38:44.584Z,24.6
2017-09-12T10:39:46.986Z,24.6
2017-09-12T10:40:49.398Z,24.6
2017-09-12T10:41:51.802Z,24.5
2017-09-12T10:42:54.255Z,24.4
2017-09-12T10:43:56.645Z,24.3
2017-09-12T10:44:59.060Z,24.1
2017-09-12T10:46:01.467Z,24.1
2017-09-12T10:47:03.866Z,23.9
2017-09-12T10:48:06.277Z,23.8
2017-09-12T10:49:08.679Z,23.7
2017-09-12T10:50:11.077Z,23.6
2017-09-12T10:51:13.818Z,23.6
2017-09-12T10:52:16.216Z,23.6
2017-09-12T10:53:18.960Z,23.5
2017-09-12T10:54:21.362Z,23.5
2017-09-12T10:55:23.758Z,23.4
2017-09-12T10:56:26.160Z,23.3
2017-09-12T10:57:28.566Z,23.3
2017-09-12T10:58:30.964Z,23.2
2017-09-12T10:59:33.370Z,23.2
2017-09-12T11:00:35.758Z,23.1
2017-09-12T11:01:38.160Z,23.1
2017-09-12T11:02:40.911Z,23
2017-09-12T11:03:43.310Z,23
2017-09-12T11:04:46.060Z,23
2017-09-12T11:05:48.467Z,23
2017-09-12T11:06:50.863Z,23
2017-09-12T11:07:53.274Z,23
2017-09-12T11:08:55.675Z,23.1
2017-09-12T11:09:58.067Z,23.2
2017-09-12T11:11:00.471Z,23.4
2017-09-12T11:12:02.874Z,23.5
2017-09-12T11:13:05.270Z,23.7
2017-09-12T11:14:07.669Z,23.9
2017-09-12T11:15:10.063Z,24.1
2017-09-12T11:16:12.464Z,24.3
2017-09-12T11:17:14.871Z,24.4
2017-09-12T11:18:17.274Z,24.5
2017-09-12T11:19:19.686Z,24.6
2017-09-12T11:20:22.092Z,24.7
2017-09-12T11:21:24.521Z,24.8
2017-09-12T11:22:26.933Z,24.9
2017-09-12T11:23:29.356Z,25.1
2017-09-12T11:24:31.768Z,25.2
2017-09-12T11:25:34.177Z,25.3
2017-09-12T11:26:36.589Z,25.3
2017-09-12T11:27:39.014Z,25.3
2017-09-12T11:28:41.416Z,25.3
2017-09-12T11:29:43.845Z,25.2
2017-09-12T11:30:46.251Z,25.1
2017-09-12T11:31:48.667Z,25
2017-09-12T11:32:51.090Z,24.8
2017-09-12T11:33:53.530Z,24.7
2017-09-12T11:34:55.938Z,24.6
2017-09-12T11:35:58.348Z,24.4
2017-09-12T11:37:00.754Z,24.3
2017-09-12T11:38:03.170Z,24.1
2017-09-12T11:39:05.584Z,24.1
2017-09-12T11:40:07.988Z,24
2017-09-12T11:41:10.387Z,23.9
2017-09-12T11:42:12.792Z,23.8
2017-09-12T11:43:15.195Z,23.8
2017-09-12T11:44:17.595Z,23.7
2017-09-12T11:45:20.004Z,23.6
2017-09-12T11:46:22.408Z,23.6
2017-09-12T11:47:25.203Z,23.5
2017-09-12T11:48:27.601Z,23.4
2017-09-12T11:49:30.004Z,23.4
2017-09-12T11:50:32.404Z,23.4
2017-09-12T11:51:34.810Z,23.3
2017-09-12T11:52:37.542Z,23.3
2017-09-12T11:53:39.942Z,23.3
2017-09-12T11:54:42.363Z,23.3
2017-09-12T11:55:44.767Z,23.3
2017-09-12T11:56:47.173Z,23.4
2017-09-12T11:57:49.574Z,23.4
2017-09-12T11:58:51.981Z,23.4
2017-09-12T11:59:54.380Z,23.4
2017-09-12T12:00:56.778Z,23.3
2017-09-12T12:01:59.189Z,23.3
2017-09-12T12:03:01.589Z,23.2
2017-09-12T12:04:03.996Z,23.1
2017-09-12T12:05:06.404Z,23.1
2017-09-12T12:06:08.800Z,23
2017-09-12T12:07:11.201Z,23
2017-09-12T12:08:13.605Z,23
2017-09-12T12:09:15.992Z,23
2017-09-12T12:10:18.391Z,23.1
2017-09-12T12:11:20.794Z,23.1
2017-09-12T12:12:23.191Z,23.1
2017-09-12T12:13:25.598Z,23.2
2017-09-12T12:14:27.998Z,23.2
2017-09-12T12:15:30.762Z,23.3
2017-09-12T12:16:33.171Z,23.3
2017-09-12T12:17:35.571Z,23.4
2017-09-12T12:18:37.966Z,23.5
2017-09-12T12:19:40.369Z,23.6
2017-09-12T12:20:43.113Z,23.7
2017-09-12T12:21:45.511Z,23.9
2017-09-12T12:22:47.912Z,24
2017-09-12T12:23:50.311Z,24.3
2017-09-12T12:24:53.044Z,24.5
2017-09-12T12:25:55.454Z,24.7
2017-09-12T12:26:57.875Z,24.9
2017-09-12T12:28:00.251Z,25
2017-09-12T12:29:02.659Z,25.1
2017-09-12T12:30:05.061Z,25.1
2017-09-12T12:31:07.464Z,25.1
2017-09-12T12:32:09.862Z,25.1
2017-09-12T12:33:12.272Z,25
2017-09-12T12:34:15.014Z,24.8
2017-09-12T12:35:17.413Z,24.7
2017-09-12T12:36:19.819Z,24.7
2017-09-12T12:37:22.228Z,24.5
2017-09-12T12:38:24.958Z,24.5
2017-09-12T12:39:27.365Z,24.4
2017-09-12T12:40:29.763Z,24.4
2017-09-12T12:41:32.167Z,24.4
2017-09-12T12:42:34.580Z,24.4
2017-09-12T12:43:36.977Z,24.6
2017-09-12T12:44:39.385Z,24.7
2017-09-12T12:45:41.788Z,24.9
2017-09-12T12:46:44.194Z,25.1
2017-09-12T12:47:46.596Z,25.3
2017-09-12T12:48:49.003Z,25.5
2017-09-12T12:49:51.398Z,25.7
2017-09-12T12:50:53.814Z,25.8
2017-09-12T12:51:56.210Z,25.8
2017-09-12T12:52:58.621Z,25.8
2017-09-12T12:54:01.388Z,25.9
2017-09-12T12:55:03.797Z,25.8
2017-09-12T12:56:06.203Z,25.8
2017-09-12T12:57:08.611Z,25.7
2017-09-12T12:58:11.007Z,25.5
2017-09-12T12:59:13.759Z,25.4
2017-09-12T13:00:16.165Z,25.2
2017-09-12T13:01:18.563Z,25.1
2017-09-12T13:02:20.976Z,24.9
2017-09-12T13:03:23.381Z,24.7
2017-09-12T13:04:25.786Z,24.5
2017-09-12T13:05:28.191Z,24.4
2017-09-12T13:06:30.588Z,24.2
2017-09-12T13:07:32.999Z,24.1
2017-09-12T13:08:35.411Z,23.9
2017-09-12T13:09:37.812Z,23.8
2017-09-12T13:10:40.211Z,23.7
2017-09-12T13:11:42.618Z,23.6
2017-09-12T13:12:45.041Z,23.6
2017-09-12T13:13:47.457Z,23.4
2017-09-12T13:14:49.865Z,23.4
2017-09-12T13:15:52.264Z,23.3
2017-09-12T13:16:54.670Z,23.3
2017-09-12T13:17:57.076Z,23.4
2017-09-12T13:18:59.478Z,23.6
2017-09-12T13:20:01.886Z,23.7
2017-09-12T13:21:04.280Z,23.8
2017-09-12T13:22:06.682Z,23.8
2017-09-12T13:23:09.096Z,23.9
2017-09-12T13:24:11.839Z,24
2017-09-12T13:25:14.238Z,24
2017-09-12T13:26:16.651Z,23.9
2017-09-12T13:27:19.392Z,23.9
2017-09-12T13:28:21.791Z,23.9
2017-09-12T13:29:24.194Z,23.8
2017-09-12T13:30:26.602Z,23.8
2017-09-12T13:31:29.005Z,23.7
2017-09-12T13:32:31.404Z,23.7
2017-09-12T13:33:33.822Z,23.6
2017-09-12T13:34:36.227Z,23.6
2017-09-12T13:35:38.633Z,23.6
2017-09-12T13:36:41.035Z,23.6
2017-09-12T13:37:43.445Z,23.7
2017-09-12T13:38:45.845Z,23.8
2017-09-12T13:39:48.257Z,24
2017-09-12T13:40:50.671Z,24.1
2017-09-12T13:41:53.072Z,24.2
2017-09-12T13:42:55.481Z,24.3
2017-09-12T13:43:57.889Z,24.4
2017-09-12T13:45:00.304Z,24.5
2017-09-12T13:46:02.704Z,24.7
2017-09-12T13:47:05.105Z,24.7
2017-09-12T13:48:07.514Z,24.9
2017-09-12T13:49:09.924Z,25
2017-09-12T13:50:12.340Z,25.1
2017-09-12T13:51:14.744Z,25.2
2017-09-12T13:52:17.152Z,25.3
2017-09-12T13:53:19.571Z,25.5
2017-09-12T13:54:21.979Z,25.6
2017-09-12T13:55:24.382Z,25.7
2017-09-12T13:56:26.787Z,25.7
2017-09-12T13:57:29.192Z,25.8
2017-09-12T13:58:31.592Z,25.9
2017-09-12T13:59:33.996Z,26